createdAt,value
2019-01-23T00:01:43.924Z,19.70
2019-01-23T00:04:12.069Z,17.70
2019-01-23T00:06:40.303Z,20.93
2019-01-23T00:09:08.445Z,18.90
2019-01-23T00:11:36.962Z,19.60
2019-01-23T00:14:06.032Z,18.93
2019-01-23T00:16:34.184Z,18.90
2019-01-23T00:19:03.012Z,19.20
2019-01-23T00:21:31.522Z,20.10
2019-01-23T00:24:00.085Z,20.10
2019-01-23T00:26:28.250Z,20.30
2019-01-23T00:28:56.415Z,21.73
2019-01-23T00:31:24.899Z,20.00
2019-01-23T00:33:53.082Z,19.20
2019-01-23T00:36:21.237Z,19.73
2019-01-23T00:38:49.874Z,19.20
2019-01-23T00:41:18.120Z,20.57
2019-01-23T00:43:46.600Z,19.57
2019-01-23T00:46:14.769Z,19.70
2019-01-23T00:48:43.279Z,19.43
2019-01-23T00:51:11.535Z,18.17
2019-01-23T00:53:39.701Z,20.97
2019-01-23T00:56:07.917Z,19.60
2019-01-23T00:58:36.178Z,20.07
2019-01-23T01:01:06.050Z,19.40
2019-01-23T01:03:34.203Z,20.00
2019-01-23T01:06:02.688Z,20.00
2019-01-23T01:08:30.852Z,19.50
2019-01-23T01:10:59.020Z,19.63
2019-01-23T01:13:27.171Z,20.07
2019-01-23T01:15:55.321Z,19.93
2019-01-23T01:18:23.495Z,19.63
2019-01-23T01:23:33.361Z,21.13
2019-01-23T01:26:01.525Z,21.27
2019-01-23T01:28:30.077Z,21.53
2019-01-23T01:30:58.576Z,19.93
2019-01-23T01:33:27.107Z,19.50
2019-01-23T01:35:55.626Z,20.47
2019-01-23T01:38:24.470Z,19.97
2019-01-23T01:40:53.045Z,21.57
2019-01-23T01:43:21.537Z,21.23
2019-01-23T01:45:50.077Z,20.93
2019-01-23T01:48:18.572Z,21.33
2019-01-23T01:50:47.049Z,19.40
2019-01-23T01:53:15.562Z,20.93
2019-01-23T01:55:44.121Z,20.50
2019-01-23T01:58:13.015Z,21.03
2019-01-23T02:00:41.670Z,21.17
2019-01-23T02:03:10.490Z,21.47
2019-01-23T02:05:39.007Z,20.87
2019-01-23T02:08:07.602Z,21.43
2019-01-23T02:10:36.166Z,18.63
2019-01-23T02:13:04.815Z,20.60
2019-01-23T02:15:33.375Z,22.07
2019-01-23T02:18:01.908Z,19.93
2019-01-23T02:20:30.385Z,21.30
2019-01-23T02:22:59.037Z,20.37
2019-01-23T02:25:27.667Z,18.73
2019-01-23T02:27:56.276Z,20.30
2019-01-23T02:30:24.889Z,20.13
2019-01-23T02:32:53.671Z,21.23
2019-01-23T02:35:22.304Z,20.63
2019-01-23T02:37:50.859Z,19.73
2019-01-23T02:40:21.345Z,20.23
2019-01-23T02:42:49.934Z,20.07
2019-01-23T02:45:19.236Z,20.80
2019-01-23T02:47:47.750Z,18.60
2019-01-23T02:50:16.773Z,20.27
2019-01-23T02:52:45.760Z,19.87
2019-01-23T02:55:14.850Z,19.93
2019-01-23T02:57:43.693Z,22.97
2019-01-23T03:00:13.099Z,20.63
2019-01-23T03:02:41.430Z,21.30
2019-01-23T03:05:11.047Z,20.67
2019-01-23T03:07:39.561Z,22.23
2019-01-23T03:10:09.400Z,21.50
2019-01-23T03:12:37.531Z,20.30
2019-01-23T03:15:07.445Z,22.87
2019-01-23T03:17:36.070Z,22.57
2019-01-23T03:20:06.024Z,21.77
2019-01-23T03:22:34.152Z,20.50
2019-01-23T03:25:02.330Z,21.60
2019-01-23T03:27:30.481Z,20.83
2019-01-23T03:29:58.650Z,23.23
2019-01-23T03:32:27.218Z,21.80
2019-01-23T03:34:56.035Z,20.70
2019-01-23T03:37:26.213Z,20.30
2019-01-23T03:39:54.389Z,23.13
2019-01-23T03:42:23.344Z,21.13
2019-01-23T03:44:52.390Z,21.53
2019-01-23T03:47:20.677Z,21.43
2019-01-23T03:49:48.854Z,20.47
2019-01-23T03:52:17.031Z,21.40
2019-01-23T03:54:46.026Z,21.13
2019-01-23T03:57:14.910Z,22.93
2019-01-23T03:59:43.081Z,21.87
2019-01-23T04:02:11.227Z,21.63
2019-01-23T04:04:39.712Z,22.03
2019-01-23T04:07:07.919Z,22.23
2019-01-23T04:09:36.142Z,21.87
2019-01-23T04:12:04.740Z,21.77
2019-01-23T04:14:33.256Z,23.47
2019-01-23T04:17:01.730Z,23.00
2019-01-23T04:19:30.284Z,21.77
2019-01-23T04:21:58.874Z,24.17
2019-01-23T04:24:27.027Z,21.87
2019-01-23T04:26:55.284Z,22.53
2019-01-23T04:29:23.451Z,22.23
2019-01-23T04:31:51.917Z,22.57
2019-01-23T04:34:20.155Z,20.27
2019-01-23T04:36:48.665Z,23.77
2019-01-23T04:39:17.152Z,21.40
2019-01-23T04:41:45.657Z,23.00
2019-01-23T04:44:13.822Z,22.37
2019-01-23T04:46:42.069Z,22.20
2019-01-23T04:49:10.601Z,21.67
2019-01-23T04:51:40.716Z,21.77
2019-01-23T04:54:10.401Z,23.37
2019-01-23T04:56:38.906Z,22.80
2019-01-23T04:59:07.661Z,22.07
2019-01-23T05:01:35.833Z,24.20
2019-01-23T05:04:04.930Z,21.73
2019-01-23T05:06:33.488Z,22.83
2019-01-23T05:09:02.087Z,22.50
2019-01-23T05:11:30.320Z,23.77
2019-01-23T05:13:58.486Z,23.43
2019-01-23T05:16:27.021Z,21.67
2019-01-23T05:18:55.521Z,20.93
2019-01-23T05:21:24.177Z,24.13
2019-01-23T05:23:52.490Z,23.70
2019-01-23T05:26:20.670Z,24.10
2019-01-23T05:28:48.837Z,22.70
2019-01-23T05:31:16.970Z,22.67
2019-01-23T05:33:45.480Z,22.87
2019-01-23T05:36:13.965Z,24.37
2019-01-23T05:38:42.539Z,23.07
2019-01-23T05:41:11.211Z,24.60
2019-01-23T05:43:40.105Z,23.20
2019-01-23T05:46:08.686Z,23.63
2019-01-23T05:48:36.827Z,24.63
2019-01-23T05:51:04.985Z,23.03
2019-01-23T05:53:33.146Z,24.27
2019-01-23T05:56:02.708Z,22.53
2019-01-23T05:58:31.194Z,24.10
2019-01-23T06:00:59.321Z,24.03
2019-01-23T06:03:27.504Z,22.17
2019-01-23T06:05:55.627Z,23.53
2019-01-23T06:08:23.808Z,21.87
2019-01-23T06:10:53.343Z,23.00
2019-01-23T06:13:21.529Z,23.90
2019-01-23T06:15:49.946Z,23.07
2019-01-23T06:18:18.088Z,23.33
2019-01-23T06:20:46.597Z,23.10
2019-01-23T06:23:15.120Z,21.90
2019-01-23T06:25:43.745Z,23.73
2019-01-23T06:28:12.329Z,23.43
2019-01-23T06:30:40.827Z,25.33
2019-01-23T06:33:09.667Z,24.83
2019-01-23T06:35:38.174Z,24.43
2019-01-23T06:38:06.650Z,24.47
2019-01-23T06:40:35.439Z,23.40
2019-01-23T06:43:03.952Z,22.93
2019-01-23T06:45:32.457Z,24.60
2019-01-23T06:48:00.965Z,25.50
2019-01-23T06:50:29.517Z,23.40
2019-01-23T06:52:58.021Z,25.10
2019-01-23T06:55:26.583Z,22.87
2019-01-23T06:57:55.085Z,24.73
2019-01-23T07:00:24.304Z,24.83
2019-01-23T07:02:53.055Z,25.17
2019-01-23T07:05:21.665Z,25.03
2019-01-23T07:07:50.149Z,24.87
2019-01-23T07:10:21.567Z,25.03
2019-01-23T07:12:50.113Z,25.13
2019-01-23T07:15:19.470Z,27.10
2019-01-23T07:17:47.947Z,28.30
2019-01-23T07:20:22.482Z,26.40
2019-01-23T07:22:51.104Z,24.07
2019-01-23T07:25:19.714Z,27.27
2019-01-23T07:27:48.218Z,26.67
2019-01-23T07:30:25.869Z,24.37
2019-01-23T07:32:54.354Z,25.53
2019-01-23T07:35:22.985Z,24.47
2019-01-23T07:37:51.612Z,23.83
2019-01-23T07:40:20.094Z,23.63
2019-01-23T07:42:48.581Z,24.43
2019-01-23T07:45:22.338Z,23.00
2019-01-23T07:47:50.992Z,23.77
2019-01-23T07:50:19.614Z,23.77
2019-01-23T07:52:48.317Z,24.03
2019-01-23T07:55:18.913Z,23.97
2019-01-23T07:57:47.788Z,23.97
2019-01-23T08:00:18.519Z,24.90
2019-01-23T08:02:47.301Z,24.93
2019-01-23T08:05:19.528Z,24.27
2019-01-23T08:07:48.441Z,24.23
2019-01-23T08:10:18.854Z,23.07
2019-01-23T08:12:47.689Z,23.97
2019-01-23T08:15:21.817Z,24.20
2019-01-23T08:17:50.361Z,24.13
2019-01-23T08:20:21.312Z,24.40
2019-01-23T08:22:50.130Z,25.40
2019-01-23T08:25:18.822Z,23.83
2019-01-23T08:27:47.319Z,23.73
2019-01-23T08:30:18.766Z,24.67
2019-01-23T08:32:47.388Z,24.00
2019-01-23T08:35:17.030Z,23.23
2019-01-23T08:37:45.884Z,23.33
2019-01-23T08:40:18.470Z,23.50
2019-01-23T08:42:46.946Z,25.03
2019-01-23T08:45:16.178Z,22.77
2019-01-23T08:47:44.771Z,22.40
2019-01-23T08:50:28.621Z,21.23
2019-01-23T08:52:56.840Z,22.47
2019-01-23T08:55:26.334Z,23.80
2019-01-23T08:57:54.867Z,23.03
2019-01-23T09:00:23.076Z,21.80
2019-01-23T09:02:51.326Z,21.27
2019-01-23T09:05:19.928Z,22.77
2019-01-23T09:07:48.190Z,23.40
2019-01-23T09:10:21.394Z,23.47
2019-01-23T09:12:50.346Z,23.40
2019-01-23T09:15:18.544Z,23.50
2019-01-23T09:17:47.090Z,21.77
2019-01-23T09:20:19.714Z,23.97
2019-01-23T09:22:49.087Z,23.50
2019-01-23T09:25:20.272Z,23.27
2019-01-23T09:27:49.609Z,24.03
2019-01-23T09:30:30.335Z,24.03
2019-01-23T09:33:21.764Z,24.07
2019-01-23T09:35:54.461Z,22.53
2019-01-23T09:38:29.096Z,22.57
2019-01-23T09:41:01.065Z,21.50
2019-01-23T09:43:35.582Z,22.00
2019-01-23T09:46:11.300Z,23.23
2019-01-23T09:48:57.913Z,21.43
2019-01-23T09:51:44.589Z,21.67
2019-01-23T09:54:13.456Z,22.17
2019-01-23T09:56:44.387Z,20.73
2019-01-23T09:59:12.874Z,21.97
2019-01-23T10:01:41.452Z,21.97
2019-01-23T10:04:09.914Z,21.00
2019-01-23T10:06:38.503Z,21.97
2019-01-23T10:09:08.313Z,20.20
2019-01-23T10:11:36.802Z,21.23
2019-01-23T10:14:05.434Z,22.33
2019-01-23T10:16:33.988Z,22.33
2019-01-23T10:19:03.150Z,21.47
2019-01-23T10:21:31.363Z,21.93
2019-01-23T10:23:59.876Z,21.00
2019-01-23T10:26:28.035Z,21.93
2019-01-23T10:28:56.467Z,21.47
2019-01-23T10:31:24.972Z,22.80
2019-01-23T10:33:53.446Z,21.10
2019-01-23T10:36:22.164Z,22.10
2019-01-23T10:38:50.999Z,21.43
2019-01-23T10:41:19.637Z,21.87
2019-01-23T10:43:48.186Z,19.67
2019-01-23T10:46:17.696Z,21.00
2019-01-23T10:48:46.778Z,20.13
2019-01-23T10:51:15.320Z,20.87
2019-01-23T10:53:43.950Z,23.23
2019-01-23T10:56:12.459Z,21.83
2019-01-23T10:58:40.955Z,20.63
2019-01-23T11:01:13.348Z,21.93
2019-01-23T11:03:39.475Z,21.77
2019-01-23T11:06:08.016Z,21.43
2019-01-23T11:08:36.232Z,21.60
2019-01-23T11:11:04.584Z,20.93
2019-01-23T11:13:33.113Z,21.83
2019-01-23T11:16:01.360Z,22.47
2019-01-23T11:18:29.514Z,22.17
2019-01-23T11:20:57.651Z,22.53
2019-01-23T11:23:25.870Z,22.80
2019-01-23T11:25:54.419Z,21.93
2019-01-23T11:28:22.895Z,21.77
2019-01-23T11:30:51.377Z,20.87
2019-01-23T11:33:19.867Z,20.93
2019-01-23T11:35:48.361Z,20.67
2019-01-23T11:38:16.591Z,20.77
2019-01-23T11:40:45.080Z,21.60
2019-01-23T11:43:13.542Z,22.27
2019-01-23T11:45:42.123Z,20.30
2019-01-23T11:48:11.013Z,21.63
2019-01-23T11:50:40.312Z,22.57
2019-01-23T11:53:08.861Z,19.90
2019-01-23T11:55:37.375Z,20.17
2019-01-23T11:58:05.857Z,22.13
2019-01-23T12:00:36.323Z,21.73
2019-01-23T12:03:05.367Z,23.17
2019-01-23T12:05:33.613Z,23.13
2019-01-23T12:08:02.167Z,21.77
2019-01-23T12:10:30.313Z,23.43
2019-01-23T12:12:58.813Z,21.67
2019-01-23T12:15:27.316Z,22.43
2019-01-23T12:17:55.978Z,20.57
2019-01-23T12:20:24.533Z,21.87
2019-01-23T12:22:52.770Z,21.10
2019-01-23T12:25:21.315Z,22.13
2019-01-23T12:27:49.896Z,21.77
2019-01-23T12:30:22.603Z,22.07
2019-01-23T12:32:50.821Z,20.63
2019-01-23T12:35:18.998Z,20.23
2019-01-23T12:37:47.563Z,19.63
2019-01-23T12:40:17.069Z,19.97
2019-01-23T12:42:45.242Z,19.73
2019-01-23T12:45:22.468Z,22.10
2019-01-23T12:47:51.545Z,21.23
2019-01-23T12:50:23.034Z,20.43
2019-01-23T12:52:51.495Z,21.70
2019-01-23T12:55:20.087Z,21.23
2019-01-23T12:57:48.955Z,21.13
2019-01-23T13:00:18.940Z,23.63
2019-01-23T13:02:47.762Z,22.13
2019-01-23T13:05:18.876Z,21.67
2019-01-23T13:07:47.605Z,21.53
2019-01-23T13:10:18.056Z,21.40
2019-01-23T13:12:46.889Z,20.87
2019-01-23T13:15:18.365Z,20.33
2019-01-23T13:17:46.941Z,21.67
2019-01-23T13:20:20.452Z,22.17
2019-01-23T13:22:49.009Z,23.47
2019-01-23T13:25:19.951Z,22.10
2019-01-23T13:27:48.163Z,24.97
2019-01-23T13:30:17.562Z,23.83
2019-01-23T13:33:05.480Z,24.53
2019-01-23T13:35:36.760Z,25.40
2019-01-23T13:38:07.921Z,24.73
2019-01-23T13:40:37.366Z,25.93
2019-01-23T13:43:07.238Z,25.50
2019-01-23T13:45:35.485Z,26.87
2019-01-23T13:48:05.114Z,23.83
2019-01-23T13:50:33.279Z,25.00
2019-01-23T13:53:01.829Z,26.60
2019-01-23T13:55:30.413Z,24.33
2019-01-23T13:57:58.913Z,24.13
2019-01-23T14:00:40.033Z,23.90
2019-01-23T14:03:09.347Z,24.10
2019-01-23T14:05:37.503Z,25.20
2019-01-23T14:08:07.047Z,25.20
2019-01-23T14:10:35.688Z,24.17
2019-01-23T14:13:04.526Z,27.00
2019-01-23T14:15:38.380Z,24.53
2019-01-23T14:18:07.388Z,24.63
2019-01-23T14:20:35.882Z,24.87
2019-01-23T14:23:04.816Z,23.73
2019-01-23T14:25:33.593Z,25.70
2019-01-23T14:28:01.753Z,24.20
2019-01-23T14:30:38.480Z,23.73
2019-01-23T14:33:07.140Z,23.33
2019-01-23T14:35:36.960Z,22.77
2019-01-23T14:38:06.000Z,23.70
2019-01-23T14:40:34.659Z,22.07
2019-01-23T14:43:03.269Z,22.30
2019-01-23T14:45:31.753Z,22.47
2019-01-23T14:48:00.265Z,20.37
2019-01-23T14:50:28.503Z,23.00
2019-01-23T14:52:56.672Z,21.33
2019-01-23T14:55:26.296Z,21.00
2019-01-23T14:57:54.941Z,21.00
2019-01-23T15:00:25.549Z,21.60
2019-01-23T15:02:53.790Z,19.47
2019-01-23T15:05:22.346Z,20.77
2019-01-23T15:07:50.835Z,20.87
2019-01-23T15:10:40.177Z,18.93
2019-01-23T15:13:09.077Z,20.27
2019-01-23T15:15:37.569Z,17.63
2019-01-23T15:18:06.338Z,18.67
2019-01-23T15:20:37.048Z,19.10
2019-01-23T15:23:05.695Z,19.20
2019-01-23T15:25:34.457Z,20.93
2019-01-23T15:28:03.063Z,18.90
2019-01-23T15:30:31.678Z,20.83
2019-01-23T15:33:00.510Z,20.07
2019-01-23T15:35:29.086Z,20.33
2019-01-23T15:37:57.633Z,20.13
2019-01-23T15:40:28.977Z,20.53
2019-01-23T15:42:57.469Z,22.37
2019-01-23T15:45:26.434Z,21.37
2019-01-23T15:47:55.269Z,21.97
2019-01-23T15:50:26.264Z,21.50
2019-01-23T15:52:54.753Z,22.13
2019-01-23T15:55:25.097Z,22.00
2019-01-23T15:57:53.703Z,23.07
2019-01-23T16:00:25.247Z,23.80
2019-01-23T16:02:53.863Z,24.07
2019-01-23T16:05:22.433Z,22.03
2019-01-23T16:07:50.976Z,21.03
2019-01-23T16:10:22.025Z,22.57
2019-01-23T16:12:50.863Z,22.43
2019-01-23T16:15:21.832Z,23.07
2019-01-23T16:17:50.384Z,23.17
2019-01-23T16:20:19.004Z,23.23
2019-01-23T16:22:47.638Z,23.97
2019-01-23T16:25:17.664Z,23.50
2019-01-23T16:27:46.500Z,22.47
2019-01-23T16:30:23.666Z,23.83
2019-01-23T16:32:52.305Z,24.93
2019-01-23T16:35:21.267Z,23.40
2019-01-23T16:37:49.991Z,24.23
2019-01-23T16:40:18.830Z,24.10
2019-01-23T16:42:47.576Z,24.63
2019-01-23T16:45:20.191Z,22.53
2019-01-23T16:47:48.826Z,24.03
2019-01-23T16:50:25.469Z,22.70
2019-01-23T16:52:54.294Z,22.93
2019-01-23T16:55:23.430Z,22.43
2019-01-23T16:57:52.869Z,21.77
2019-01-23T17:00:24.301Z,26.53
2019-01-23T17:02:53.359Z,24.87
2019-01-23T17:05:24.797Z,22.47
2019-01-23T17:07:53.320Z,22.60
2019-01-23T17:10:24.056Z,21.50
2019-01-23T17:12:52.737Z,22.40
2019-01-23T17:15:21.328Z,21.97
2019-01-23T17:17:50.076Z,22.33
2019-01-23T17:20:24.343Z,22.03
2019-01-23T17:22:53.203Z,22.57
2019-01-23T17:25:21.749Z,22.27
2019-01-23T17:27:50.414Z,22.90
2019-01-23T17:30:20.327Z,22.10
2019-01-23T17:32:49.170Z,21.87
2019-01-23T17:35:21.537Z,22.77
2019-01-23T17:37:50.102Z,23.73
2019-01-23T17:40:25.376Z,21.60
2019-01-23T17:42:53.935Z,23.83
2019-01-23T17:45:28.326Z,24.47
2019-01-23T17:47:56.893Z,24.60
2019-01-23T17:50:25.547Z,23.80
2019-01-23T17:52:54.113Z,22.83
2019-01-23T17:55:25.395Z,25.13
2019-01-23T17:57:54.213Z,23.93
2019-01-23T18:00:26.630Z,26.37
2019-01-23T18:02:55.478Z,26.03
2019-01-23T18:05:24.321Z,25.47
2019-01-23T18:07:52.798Z,25.23
2019-01-23T18:10:21.352Z,25.03
2019-01-23T18:12:50.288Z,23.20
2019-01-23T18:15:21.699Z,23.70
2019-01-23T18:17:50.646Z,23.83
2019-01-23T18:20:22.001Z,25.10
2019-01-23T18:22:50.472Z,23.80
2019-01-23T18:25:19.130Z,24.30
2019-01-23T18:27:47.588Z,24.33
2019-01-23T18:30:19.297Z,25.23
2019-01-23T18:32:48.653Z,22.07
2019-01-23T18:35:28.513Z,25.13
2019-01-23T18:38:03.207Z,22.63
2019-01-23T18:40:53.992Z,23.07
2019-01-23T18:43:37.534Z,22.57
2019-01-23T18:46:32.150Z,22.50
2019-01-23T18:49:16.070Z,21.33
2019-01-23T18:51:45.614Z,25.40
2019-01-23T18:54:14.161Z,23.70
2019-01-23T18:56:42.750Z,22.37
2019-01-23T18:59:11.275Z,22.83
2019-01-23T19:01:39.773Z,22.50
2019-01-23T19:04:08.323Z,22.93
2019-01-23T19:06:36.837Z,23.20
2019-01-23T19:09:08.256Z,23.00
2019-01-23T19:11:36.990Z,21.90
2019-01-23T19:14:05.548Z,22.43
2019-01-23T19:16:34.266Z,22.47
2019-01-23T19:19:02.803Z,21.97
2019-01-23T19:21:31.376Z,23.10
2019-01-23T19:23:59.858Z,21.60
2019-01-23T19:26:28.346Z,21.73
2019-01-23T19:28:56.850Z,21.93
2019-01-23T19:31:25.696Z,22.73
2019-01-23T19:33:54.198Z,23.93
2019-01-23T19:36:22.350Z,22.87
2019-01-23T19:38:50.868Z,25.30
2019-01-23T19:41:20.470Z,23.27
2019-01-23T19:43:52.916Z,23.50
2019-01-23T19:46:21.413Z,26.17
2019-01-23T19:48:49.585Z,25.53
2019-01-23T19:51:18.140Z,24.83
2019-01-23T19:53:46.617Z,23.80
2019-01-23T19:56:15.528Z,22.93
2019-01-23T19:58:43.986Z,23.97
2019-01-23T20:01:12.544Z,23.53
2019-01-23T20:03:41.528Z,24.43
2019-01-23T20:06:10.575Z,22.50
2019-01-23T20:08:40.532Z,25.33
2019-01-23T20:11:09.057Z,24.00
2019-01-23T20:13:37.536Z,24.30
2019-01-23T20:16:06.062Z,21.40
2019-01-23T20:18:34.573Z,22.70
2019-01-23T20:21:03.077Z,23.53
2019-01-23T20:23:31.575Z,24.13
2019-01-23T20:26:00.052Z,21.90
2019-01-23T20:28:28.236Z,23.73
2019-01-23T20:30:56.392Z,24.27
2019-01-23T20:33:28.154Z,20.87
2019-01-23T20:35:55.231Z,23.37
2019-01-23T20:38:23.686Z,23.20
2019-01-23T20:40:52.210Z,23.10
2019-01-23T20:43:21.335Z,22.63
2019-01-23T20:45:49.845Z,23.97
2019-01-23T20:48:18.388Z,24.23
2019-01-23T20:50:46.876Z,22.73
2019-01-23T20:53:16.689Z,21.87
2019-01-23T20:55:46.028Z,22.63
2019-01-23T20:58:15.467Z,24.50
2019-01-23T21:00:43.958Z,23.70
2019-01-23T21:03:12.821Z,23.27
2019-01-23T21:05:42.191Z,22.90
2019-01-23T21:08:10.663Z,22.57
2019-01-23T21:10:39.199Z,22.70
2019-01-23T21:13:07.786Z,23.00
2019-01-23T21:15:36.038Z,23.03
2019-01-23T21:18:05.038Z,23.50
2019-01-23T21:20:33.602Z,23.37
2019-01-23T21:23:02.226Z,23.50
2019-01-23T21:25:30.855Z,26.03
2019-01-23T21:27:59.344Z,25.67
2019-01-23T21:30:27.841Z,24.67
2019-01-23T21:32:57.403Z,23.93
2019-01-23T21:35:25.879Z,22.17
2019-01-23T21:37:54.739Z,24.60
2019-01-23T21:40:29.426Z,25.00
2019-01-23T21:42:58.000Z,25.03
2019-01-23T21:45:26.600Z,27.47
2019-01-23T21:47:55.406Z,27.67
2019-01-23T21:50:25.153Z,30.47
2019-01-23T21:52:53.362Z,28.00
2019-01-23T21:55:24.104Z,26.40
2019-01-23T21:57:53.091Z,25.83
2019-01-23T22:00:26.910Z,27.00
2019-01-23T22:02:56.922Z,24.10
2019-01-23T22:05:25.538Z,24.50
2019-01-23T22:07:54.035Z,26.43
2019-01-23T22:10:22.584Z,32.93
2019-01-23T22:12:51.105Z,29.10
2019-01-23T22:15:22.570Z,26.50
2019-01-23T22:17:51.327Z,25.27
2019-01-23T22:20:21.383Z,24.10
2019-01-23T22:22:49.888Z,25.23
2019-01-23T22:25:20.220Z,23.77
2019-01-23T22:27:48.934Z,25.13
2019-01-23T22:30:22.282Z,24.47
2019-01-23T22:32:50.762Z,23.10
2019-01-23T22:35:19.289Z,24.73
2019-01-23T22:37:48.153Z,23.93
2019-01-23T22:40:18.667Z,23.37
2019-01-23T22:42:47.425Z,25.50
2019-01-23T22:45:20.871Z,24.23
2019-01-23T22:47:49.497Z,26.40
2019-01-23T22:50:23.315Z,28.23
2019-01-23T22:52:52.421Z,27.07
2019-01-23T22:55:21.294Z,27.40
2019-01-23T22:57:49.937Z,25.83
2019-01-23T23:00:24.109Z,25.33
2019-01-23T23:02:52.747Z,25.10
2019-01-23T23:05:21.392Z,27.63
2019-01-23T23:07:50.308Z,26.27
2019-01-23T23:10:18.917Z,26.07
2019-01-23T23:12:47.479Z,24.23
2019-01-23T23:15:16.512Z,23.13
2019-01-23T23:17:45.154Z,24.20
2019-01-23T23:20:14.068Z,24.47
2019-01-23T23:22:42.586Z,23.83
2019-01-23T23:25:11.602Z,24.30
2019-01-23T23:27:40.242Z,25.33
2019-01-23T23:30:12.945Z,24.67
2019-01-23T23:32:41.776Z,23.60
2019-01-23T23:35:10.395Z,25.90
2019-01-23T23:37:38.916Z,24.33
2019-01-23T23:40:14.965Z,24.90
2019-01-23T23:42:43.787Z,24.93
2019-01-23T23:45:15.117Z,25.73
2019-01-23T23:47:43.938Z,24.53
2019-01-23T23:50:15.529Z,24.40
2019-01-23T23:52:44.153Z,24.33
2019-01-23T23:55:14.723Z,25.43
2019-01-23T23:57:43.022Z,25.03
